createdAt,value
2022-11-13T00:00:53.092Z,100835.94
2022-11-13T00:03:41.260Z,100844.72
2022-11-13T00:06:29.839Z,100845.44
2022-11-13T00:09:17.579Z,100845.41
2022-11-13T00:12:05.686Z,100859.53
2022-11-13T00:14:56.988Z,100851.81
2022-11-13T00:17:45.700Z,100845.69
2022-11-13T00:20:34.104Z,100849.94
2022-11-13T00:23:22.776Z,100844.56
2022-11-13T00:26:12.586Z,100850.66
2022-11-13T00:29:03.203Z,100844.53
2022-11-13T00:31:52.347Z,100843.69
2022-11-13T00:34:47.701Z,100830.53
2022-11-13T00:37:36.036Z,100827.09
2022-11-13T00:40:24.153Z,100830.69
2022-11-13T00:43:11.604Z,100814.09
2022-11-13T00:45:59.945Z,100807.06
2022-11-13T00:48:49.645Z,100810.63
2022-11-13T00:51:42.558Z,100810.66
2022-11-13T00:54:30.690Z,100795.75
2022-11-13T00:57:20.492Z,100795.72
2022-11-13T01:00:14.705Z,100791.44
2022-11-13T01:03:03.776Z,100797.31
2022-11-13T01:05:54.834Z,100790.09
2022-11-13T01:08:47.742Z,100796.34
2022-11-13T01:11:35.782Z,100782.25
2022-11-13T01:14:24.027Z,100788.31
2022-11-13T01:17:13.626Z,100782.97
2022-11-13T01:20:03.310Z,100786.47
2022-11-13T01:22:54.878Z,100773.50
2022-11-13T01:25:43.552Z,100779.72
2022-11-13T01:28:31.578Z,100776.22
2022-11-13T01:31:22.732Z,100781.41
2022-11-13T01:34:11.656Z,100777.84
2022-11-13T01:37:01.583Z,100775.31
2022-11-13T01:39:52.475Z,100766.53
2022-11-13T01:42:40.894Z,100764.56
2022-11-13T01:46:05.497Z,100769.28
2022-11-13T01:48:58.309Z,100762.22
2022-11-13T01:51:49.795Z,100761.31
2022-11-13T01:54:42.397Z,100761.16
2022-11-13T01:57:33.447Z,100754.03
2022-11-13T02:00:36.019Z,100754.91
2022-11-13T02:03:24.358Z,100765.19
2022-11-13T02:06:14.298Z,100751.44
2022-11-13T02:09:02.308Z,100748.09
2022-11-13T02:11:50.548Z,100748.06
2022-11-13T02:14:44.264Z,100748.91
2022-11-13T02:17:37.186Z,100759.25
2022-11-13T02:20:32.554Z,100754.09
2022-11-13T02:23:30.443Z,100745.34
2022-11-13T02:26:22.447Z,100740.97
2022-11-13T02:29:09.693Z,100740.19
2022-11-13T02:31:57.594Z,100738.38
2022-11-13T02:34:46.268Z,100737.47
2022-11-13T02:37:37.890Z,100727.97
2022-11-13T02:40:26.047Z,100729.50
2022-11-13T02:43:15.427Z,100723.53
2022-11-13T02:46:02.918Z,100723.63
2022-11-13T02:48:51.292Z,100727.75
2022-11-13T02:51:38.418Z,100726.03
2022-11-13T02:54:26.722Z,100726.09
2022-11-13T02:57:14.213Z,100730.47
2022-11-13T03:00:07.991Z,100745.09
2022-11-13T03:03:01.252Z,100733.84
2022-11-13T03:05:51.311Z,100736.47
2022-11-13T03:08:38.958Z,100734.88
2022-11-13T03:11:27.674Z,100732.16
2022-11-13T03:14:16.650Z,100737.34
2022-11-13T03:17:07.345Z,100740.09
2022-11-13T03:19:55.164Z,100739.31
2022-11-13T03:22:43.018Z,100741.78
2022-11-13T03:25:31.049Z,100742.56
2022-11-13T03:28:18.859Z,100740.72
2022-11-13T03:31:06.890Z,100744.22
2022-11-13T03:33:57.138Z,100741.75
2022-11-13T03:36:44.664Z,100752.25
2022-11-13T03:40:23.170Z,100747.91
2022-11-13T03:43:32.109Z,100747.94
2022-11-13T03:46:22.603Z,100743.66
2022-11-13T03:49:12.346Z,100750.66
2022-11-13T03:52:01.458Z,100743.69
2022-11-13T03:54:50.478Z,100746.22
2022-11-13T03:57:39.359Z,100741.81
2022-11-13T04:00:27.182Z,100735.69
2022-11-13T04:03:16.920Z,100747.06
2022-11-13T04:06:07.456Z,100748.88
2022-11-13T04:08:55.632Z,100754.28
2022-11-13T04:11:42.928Z,100756.06
2022-11-13T04:14:30.618Z,100758.03
2022-11-13T04:17:17.889Z,100751.06
2022-11-13T04:20:06.709Z,100751.19
2022-11-13T04:22:57.637Z,100738.94
2022-11-13T04:25:46.406Z,100740.78
2022-11-13T04:28:34.611Z,100740.78
2022-11-13T04:31:22.712Z,100739.06
2022-11-13T04:34:10.120Z,100747.72
2022-11-13T04:36:57.934Z,100745.22
2022-11-13T04:39:46.931Z,100726.06
2022-11-13T04:42:52.091Z,100731.06
2022-11-13T04:45:39.815Z,100734.66
2022-11-13T04:48:27.300Z,100739.75
2022-11-13T04:51:14.894Z,100737.88
2022-11-13T04:54:02.431Z,100740.47
2022-11-13T04:56:51.426Z,100748.41
2022-11-13T04:59:40.266Z,100741.41
2022-11-13T05:02:27.764Z,100742.09
2022-11-13T05:05:15.459Z,100745.56
2022-11-13T05:08:02.793Z,100743.88
2022-11-13T05:10:50.276Z,100742.25
2022-11-13T05:13:39.193Z,100743.94
2022-11-13T05:16:29.239Z,100750.00
2022-11-13T05:19:17.627Z,100743.81
2022-11-13T05:22:06.561Z,100740.47
2022-11-13T05:24:53.883Z,100750.94
2022-11-13T05:27:45.038Z,100754.34
2022-11-13T05:30:35.958Z,100749.06
2022-11-13T05:33:24.398Z,100749.94
2022-11-13T05:36:14.162Z,100743.00
2022-11-13T05:39:03.322Z,100749.25
2022-11-13T05:41:53.440Z,100744.78
2022-11-13T05:44:41.885Z,100758.00
2022-11-13T05:47:30.788Z,100748.47
2022-11-13T05:50:20.857Z,100746.69
2022-11-13T05:53:07.999Z,100744.06
2022-11-13T05:55:55.809Z,100740.53
2022-11-13T05:58:44.097Z,100736.94
2022-11-13T06:01:34.011Z,100738.78
2022-11-13T06:04:23.283Z,100732.69
2022-11-13T06:07:13.868Z,100737.13
2022-11-13T06:10:01.257Z,100738.91
2022-11-13T06:12:49.158Z,100745.13
2022-11-13T06:15:38.569Z,100739.09
2022-11-13T06:18:31.869Z,100738.16
2022-11-13T06:21:24.883Z,100740.84
2022-11-13T06:24:15.646Z,100746.00
2022-11-13T06:27:03.443Z,100745.25
2022-11-13T06:29:51.404Z,100741.00
2022-11-13T06:32:39.821Z,100747.22
2022-11-13T06:35:28.160Z,100735.06
2022-11-13T06:38:16.919Z,100732.53
2022-11-13T06:41:06.003Z,100738.66
2022-11-13T06:43:54.982Z,100736.00
2022-11-13T06:46:47.551Z,100733.47
2022-11-13T06:49:35.867Z,100723.94
2022-11-13T06:52:24.319Z,100717.00
2022-11-13T06:55:16.322Z,100717.00
2022-11-13T06:58:08.432Z,100716.19
2022-11-13T07:00:59.890Z,100724.91
2022-11-13T07:03:55.825Z,100721.44
2022-11-13T07:06:48.588Z,100713.59
2022-11-13T07:09:41.521Z,100712.78
2022-11-13T07:12:43.997Z,100709.34
2022-11-13T07:15:39.576Z,100711.06
2022-11-13T07:18:28.703Z,100700.56
2022-11-13T07:21:31.011Z,100700.56
2022-11-13T07:29:06.622Z,100708.47
2022-11-13T07:32:37.395Z,100712.81
2022-11-13T07:35:25.622Z,100698.78
2022-11-13T07:38:12.850Z,100699.63
2022-11-13T07:41:01.097Z,100699.59
2022-11-13T07:43:48.284Z,100700.47
2022-11-13T07:46:38.476Z,100694.38
2022-11-13T07:52:48.061Z,100694.34
2022-11-13T07:56:23.837Z,100690.84
2022-11-13T07:59:39.291Z,100687.28
2022-11-13T08:06:58.009Z,100682.03
2022-11-13T08:24:38.890Z,100682.72
2022-11-13T09:49:15.118Z,100624.63
2022-11-13T09:52:58.490Z,100624.75
2022-11-13T09:56:03.102Z,100618.59
2022-11-13T10:02:27.447Z,100607.50
2022-11-13T10:05:25.143Z,100607.16
2022-11-13T10:08:22.634Z,100604.50
2022-11-13T10:11:21.213Z,100601.13
2022-11-13T10:14:30.452Z,100592.34
2022-11-13T10:17:26.839Z,100577.59
2022-11-13T10:20:17.519Z,100575.81
2022-11-13T10:23:14.528Z,100568.69
2022-11-13T10:26:15.386Z,100577.28
2022-11-13T10:29:15.207Z,100573.50
2022-11-13T10:32:18.884Z,100576.88
2022-11-13T10:35:23.698Z,100579.34
2022-11-13T10:38:21.704Z,100571.13
2022-11-13T10:41:14.051Z,100572.16
2022-11-13T10:44:28.197Z,100564.34
2022-11-13T10:47:31.229Z,100570.38
2022-11-13T10:50:28.361Z,100563.22
2022-11-13T10:53:23.063Z,100557.25
2022-11-13T10:56:15.806Z,100544.75
2022-11-13T10:59:12.874Z,100549.69
2022-11-13T11:02:17.519Z,100549.44
2022-11-13T11:05:14.823Z,100546.94
2022-11-13T11:08:03.140Z,100551.41
2022-11-13T11:11:18.058Z,100545.50
2022-11-13T11:14:22.409Z,100526.69
2022-11-13T11:17:13.425Z,100517.41
2022-11-13T11:20:07.404Z,100509.00
2022-11-13T11:23:02.375Z,100507.28
2022-11-13T11:25:59.833Z,100515.56
2022-11-13T11:28:56.140Z,100514.81
2022-11-13T11:31:51.925Z,100501.69
2022-11-13T11:34:44.154Z,100502.53
2022-11-13T11:37:40.903Z,100498.75
2022-11-13T11:40:32.912Z,100494.94
2022-11-13T11:43:31.302Z,100489.72
2022-11-13T11:46:30.591Z,100483.59
2022-11-13T11:49:17.998Z,100480.34
2022-11-13T11:52:21.113Z,100477.75
2022-11-13T11:56:22.617Z,100474.78
2022-11-13T11:59:53.677Z,100466.25
2022-11-13T12:03:15.480Z,100462.91
2022-11-13T12:06:16.223Z,100461.47
2022-11-13T12:09:14.735Z,100455.88
2022-11-13T12:12:14.073Z,100455.38
2022-11-13T12:15:06.803Z,100444.97
2022-11-13T12:18:06.660Z,100434.44
2022-11-13T12:21:04.257Z,100444.53
2022-11-13T12:24:07.285Z,100437.81
2022-11-13T12:27:15.268Z,100444.41
2022-11-13T12:30:16.260Z,100441.75
2022-11-13T12:33:16.360Z,100435.97
2022-11-13T12:36:05.311Z,100434.16
2022-11-13T12:39:02.565Z,100425.94
2022-11-13T12:41:55.845Z,100428.19
2022-11-13T12:44:53.523Z,100429.34
2022-11-13T12:47:44.099Z,100432.44
2022-11-13T12:50:33.164Z,100432.47
2022-11-13T12:53:28.332Z,100414.81
2022-11-13T12:56:37.080Z,100421.66
2022-11-13T12:59:36.990Z,100420.91
2022-11-13T13:02:47.994Z,100423.88
2022-11-13T13:06:26.650Z,100408.66
2022-11-13T13:09:30.121Z,100406.16
2022-11-13T13:12:25.805Z,100411.59
2022-11-13T13:15:27.641Z,100403.78
2022-11-13T13:18:28.551Z,100409.81
2022-11-13T13:21:20.507Z,100399.31
2022-11-13T13:24:10.372Z,100402.91
2022-11-13T13:26:58.163Z,100399.13
2022-11-13T13:29:46.804Z,100391.81
2022-11-13T13:32:44.836Z,100400.69
2022-11-13T13:35:44.489Z,100401.41
2022-11-13T13:38:52.134Z,100393.59
2022-11-13T13:41:54.684Z,100401.50
2022-11-13T13:45:01.369Z,100385.28
2022-11-13T13:47:53.214Z,100396.09
2022-11-13T13:50:45.972Z,100393.63
2022-11-13T13:53:39.132Z,100386.25
2022-11-13T13:56:28.218Z,100395.25
2022-11-13T13:59:18.214Z,100393.47
2022-11-13T14:02:16.646Z,100399.66
2022-11-13T14:05:04.610Z,100398.38
2022-11-13T14:07:53.716Z,100397.19
2022-11-13T14:10:43.796Z,100394.41
2022-11-13T14:13:52.274Z,100386.78
2022-11-13T14:16:56.637Z,100387.41
2022-11-13T14:19:52.482Z,100385.56
2022-11-13T14:22:44.384Z,100390.41
2022-11-13T14:25:33.178Z,100394.63
2022-11-13T14:28:24.230Z,100390.25
2022-11-13T14:31:15.659Z,100401.81
2022-11-13T14:34:15.072Z,100393.69
2022-11-13T14:37:22.290Z,100391.16
2022-11-13T14:40:21.330Z,100378.72
2022-11-13T14:43:15.485Z,100374.34
2022-11-13T14:46:32.061Z,100375.56
2022-11-13T14:49:29.697Z,100375.81
2022-11-13T14:52:27.646Z,100381.16
2022-11-13T14:55:29.012Z,100381.16
2022-11-13T14:58:29.282Z,100375.81
2022-11-13T15:01:21.361Z,100375.06
2022-11-13T15:04:09.334Z,100373.38
2022-11-13T15:07:01.260Z,100379.59
2022-11-13T15:09:51.620Z,100371.00
2022-11-13T15:12:41.995Z,100372.09
2022-11-13T15:15:42.269Z,100373.44
2022-11-13T15:19:07.165Z,100364.78
2022-11-13T15:25:14.595Z,100363.44
2022-11-13T15:28:09.590Z,100371.19
2022-11-13T15:31:17.812Z,100374.06
2022-11-13T15:34:21.660Z,100380.91
2022-11-13T15:38:05.329Z,100383.41
2022-11-13T15:41:01.909Z,100374.69
2022-11-13T15:44:16.872Z,100375.66
2022-11-13T15:47:38.419Z,100378.13
2022-11-13T15:50:47.276Z,100374.78
2022-11-13T15:58:03.257Z,100383.84
2022-11-13T16:16:22.722Z,100379.75
2022-11-13T16:52:17.700Z,100387.19
2022-11-13T16:56:01.161Z,100376.59
2022-11-13T17:11:20.207Z,100395.66
2022-11-13T17:22:30.556Z,100395.28
2022-11-13T17:25:30.589Z,100390.16
2022-11-13T17:28:28.619Z,100385.00
2022-11-13T17:31:26.425Z,100383.25
2022-11-13T17:34:22.318Z,100383.34
2022-11-13T17:41:58.853Z,100387.91
2022-11-13T17:52:23.710Z,100385.53
2022-11-13T17:56:22.161Z,100382.75
2022-11-13T18:00:04.236Z,100382.81
2022-11-13T18:14:50.128Z,100383.81
2022-11-13T18:21:38.433Z,100385.75
2022-11-13T18:24:26.132Z,100378.81
2022-11-13T18:27:13.858Z,100380.59
2022-11-13T18:30:03.388Z,100379.72
2022-11-13T18:32:50.710Z,100377.94
2022-11-13T18:35:38.667Z,100380.66
2022-11-13T18:38:25.880Z,100380.56
2022-11-13T18:41:15.925Z,100369.09
2022-11-13T18:44:03.135Z,100370.81
2022-11-13T18:46:52.074Z,100381.41
2022-11-13T18:49:39.744Z,100370.81
2022-11-13T18:52:27.748Z,100377.84
2022-11-13T18:55:14.838Z,100381.41
2022-11-13T18:58:03.483Z,100375.28
2022-11-13T19:00:50.598Z,100371.91
2022-11-13T19:03:41.521Z,100370.97
2022-11-13T19:06:39.505Z,100376.31
2022-11-13T19:09:27.229Z,100377.06
2022-11-13T19:12:14.803Z,100373.63
2022-11-13T19:15:03.624Z,100371.09
2022-11-13T19:17:52.919Z,100384.31
2022-11-13T19:20:41.916Z,100379.91
2022-11-13T19:23:29.465Z,100374.75
2022-11-13T19:26:17.879Z,100373.91
2022-11-13T19:29:05.580Z,100382.81
2022-11-13T19:31:56.278Z,100376.59
2022-11-13T19:35:05.150Z,100374.91
2022-11-13T19:38:00.437Z,100374.16
2022-11-13T19:40:49.028Z,100375.00
2022-11-13T19:43:37.844Z,100367.94
2022-11-13T19:46:25.804Z,100376.69
2022-11-13T19:49:13.924Z,100376.66
2022-11-13T19:52:01.015Z,100369.66
2022-11-13T19:54:50.177Z,100369.63
2022-11-13T19:57:40.852Z,100372.28
2022-11-13T20:00:32.096Z,100377.47
2022-11-13T20:03:20.089Z,100376.59
2022-11-13T20:06:14.957Z,100376.59
2022-11-13T20:09:03.881Z,100365.31
2022-11-13T20:15:17.598Z,100361.59
2022-11-13T20:18:08.282Z,100366.09
2022-11-13T20:21:00.342Z,100355.63
2022-11-13T20:23:48.450Z,100353.09
2022-11-13T20:26:38.680Z,100356.56
2022-11-13T20:29:28.329Z,100361.03
2022-11-13T20:32:16.837Z,100353.19
2022-11-13T20:35:07.544Z,100344.44
2022-11-13T20:37:56.058Z,100340.09
2022-11-13T20:40:43.779Z,100346.22
2022-11-13T20:43:34.448Z,100352.31
2022-11-13T20:46:23.662Z,100350.69
2022-11-13T20:49:11.833Z,100347.13
2022-11-13T20:52:02.227Z,100343.66
2022-11-13T20:54:49.622Z,100337.47
2022-11-13T20:57:40.910Z,100334.91
2022-11-13T21:00:29.112Z,100337.56
2022-11-13T21:04:03.913Z,100338.38
2022-11-13T21:06:52.466Z,100338.34
2022-11-13T21:09:40.573Z,100340.03
2022-11-13T21:12:27.931Z,100339.16
2022-11-13T21:15:16.214Z,100345.22
2022-11-13T21:18:04.001Z,100345.13
2022-11-13T21:20:53.473Z,100344.25
2022-11-13T21:24:02.469Z,100342.31
2022-11-13T21:26:51.563Z,100344.25
2022-11-13T21:29:44.083Z,100346.81
2022-11-13T21:32:34.650Z,100344.19
2022-11-13T21:35:22.905Z,100336.28
2022-11-13T21:38:13.925Z,100335.34
2022-11-13T21:41:19.866Z,100329.25
2022-11-13T21:44:10.929Z,100333.63
2022-11-13T21:46:58.930Z,100339.75
2022-11-13T21:49:48.072Z,100342.34
2022-11-13T21:52:36.319Z,100337.91
2022-11-13T21:55:25.257Z,100331.00
2022-11-13T21:58:13.988Z,100335.44
2022-11-13T22:01:02.192Z,100330.28
2022-11-13T22:03:49.709Z,100334.75
2022-11-13T22:06:37.381Z,100330.50
2022-11-13T22:09:25.956Z,100324.31
2022-11-13T22:12:17.034Z,100323.50
2022-11-13T22:15:04.929Z,100317.41
2022-11-13T22:17:53.490Z,100327.91
2022-11-13T22:20:44.296Z,100318.22
2022-11-13T22:23:32.287Z,100326.09
2022-11-13T22:26:42.060Z,100323.56
2022-11-13T22:29:31.340Z,100322.69
2022-11-13T22:32:19.288Z,100327.06
2022-11-13T22:35:07.949Z,100321.78
2022-11-13T22:37:56.240Z,100324.31
2022-11-13T22:40:46.254Z,100320.69
2022-11-13T22:43:35.314Z,100315.66
2022-11-13T22:46:26.258Z,100314.72
2022-11-13T22:49:14.095Z,100310.25
2022-11-13T22:52:01.826Z,100302.31
2022-11-13T22:54:49.119Z,100298.94
2022-11-13T22:57:37.451Z,100297.22
2022-11-13T23:00:26.547Z,100301.59
2022-11-13T23:03:15.789Z,100297.16
2022-11-13T23:06:03.944Z,100295.59
2022-11-13T23:08:52.046Z,100292.09
2022-11-13T23:11:42.357Z,100294.63
2022-11-13T23:14:29.781Z,100298.03
2022-11-13T23:17:19.712Z,100301.50
2022-11-13T23:20:11.065Z,100297.94
2022-11-13T23:22:58.772Z,100305.00
2022-11-13T23:25:47.431Z,100304.91
2022-11-13T23:28:38.506Z,100299.59
2022-11-13T23:31:26.827Z,100303.97
2022-11-13T23:34:38.400Z,100308.63
2022-11-13T23:37:27.730Z,100307.72
2022-11-13T23:40:16.489Z,100302.34
2022-11-13T23:43:16.408Z,100297.00
2022-11-13T23:46:04.310Z,100295.25
2022-11-13T23:48:55.892Z,100298.84
2022-11-13T23:51:47.140Z,100305.31
2022-11-13T23:54:37.929Z,100300.19
2022-11-13T23:57:27.071Z,100292.94
